createdAt,value
2019-03-30T00:00:09.993Z,25.6
2019-03-30T00:03:16.056Z,25.6
2019-03-30T00:06:22.020Z,25.7
2019-03-30T00:09:28.092Z,25.8
2019-03-30T00:12:34.145Z,25.8
2019-03-30T00:15:40.210Z,25.8
2019-03-30T00:18:49.039Z,25.8
2019-03-30T00:21:54.998Z,25.9
2019-03-30T00:25:00.872Z,25.9
2019-03-30T00:28:06.815Z,25.9
2019-03-30T00:31:12.781Z,25.9
2019-03-30T00:34:18.759Z,26.1
2019-03-30T00:37:24.719Z,26.1
2019-03-30T00:40:30.659Z,26
2019-03-30T00:43:36.624Z,26.1
2019-03-30T00:46:42.579Z,26.1
2019-03-30T00:49:50.790Z,26.1
2019-03-30T00:52:56.847Z,26.2
2019-03-30T00:56:02.809Z,26.3
2019-03-30T00:59:08.769Z,26.3
2019-03-30T01:02:14.733Z,26.3
2019-03-30T01:05:20.785Z,26.3
2019-03-30T01:08:26.759Z,26.4
2019-03-30T01:11:32.652Z,26.3
2019-03-30T01:14:38.545Z,26.4
2019-03-30T01:17:44.533Z,26.4
2019-03-30T01:20:50.769Z,26.4
2019-03-30T01:23:56.759Z,26.4
2019-03-30T01:27:02.711Z,26.6
2019-03-30T01:30:23.712Z,26.5
2019-03-30T01:33:29.670Z,26.5
2019-03-30T01:36:35.644Z,26.6
2019-03-30T01:39:41.715Z,26.7
2019-03-30T01:42:50.721Z,26.7
2019-03-30T01:45:56.801Z,26.6
2019-03-30T01:49:02.759Z,26.7
2019-03-30T01:52:11.318Z,26.8
2019-03-30T01:55:17.248Z,26.7
2019-03-30T01:58:23.309Z,26.7
2019-03-30T02:01:29.192Z,26.7
2019-03-30T02:04:35.228Z,26.8
2019-03-30T02:07:41.189Z,26.9
2019-03-30T02:10:47.059Z,27
2019-03-30T02:13:53.110Z,26.8
2019-03-30T02:16:59.067Z,26.9
2019-03-30T02:20:05.027Z,27
2019-03-30T02:23:10.994Z,27
2019-03-30T02:26:16.953Z,26.9
2019-03-30T02:29:22.905Z,27
2019-03-30T02:32:31.530Z,26.9
2019-03-30T02:35:37.592Z,27
2019-03-30T02:38:43.657Z,27
2019-03-30T02:41:49.530Z,27.1
2019-03-30T02:44:55.618Z,27.2
2019-03-30T02:48:01.741Z,27.2
2019-03-30T02:51:07.729Z,27.1
2019-03-30T02:54:17.141Z,27.2
2019-03-30T02:57:23.202Z,27.2
2019-03-30T03:00:29.163Z,27.3
2019-03-30T03:03:35.220Z,27.4
2019-03-30T03:06:41.285Z,27.3
2019-03-30T03:09:47.247Z,27.3
2019-03-30T03:12:53.411Z,27.3
2019-03-30T03:15:59.573Z,27.4
2019-03-30T03:19:08.392Z,27.5
2019-03-30T03:22:14.375Z,27.5
2019-03-30T03:25:20.421Z,27.5
2019-03-30T03:28:26.295Z,27.5
2019-03-30T03:31:32.382Z,27.6
2019-03-30T03:34:38.609Z,27.6
2019-03-30T03:37:46.928Z,27.7
2019-03-30T03:40:52.806Z,27.7
2019-03-30T03:43:58.947Z,27.7
2019-03-30T03:47:04.909Z,27.8
2019-03-30T03:50:10.805Z,27.7
2019-03-30T03:53:16.933Z,27.8
2019-03-30T03:56:23.096Z,27.9
2019-03-30T03:59:29.158Z,27.8
2019-03-30T04:02:35.118Z,27.8
2019-03-30T04:05:41.165Z,27.8
2019-03-30T04:08:47.174Z,27.9
2019-03-30T04:11:53.203Z,27.9
2019-03-30T04:14:59.265Z,28
2019-03-30T04:18:05.326Z,28.1
2019-03-30T04:21:11.288Z,28
2019-03-30T04:24:17.249Z,28
2019-03-30T04:27:23.181Z,28
2019-03-30T04:30:29.166Z,28
2019-03-30T04:33:35.227Z,28.1
2019-03-30T04:36:41.234Z,28
2019-03-30T04:39:47.352Z,28
2019-03-30T04:42:53.415Z,28.1
2019-03-30T04:45:59.374Z,28
2019-03-30T04:49:05.436Z,28
2019-03-30T04:52:11.396Z,28
2019-03-30T04:55:17.360Z,28.1
2019-03-30T04:58:23.255Z,28.1
2019-03-30T05:01:29.277Z,28.1
2019-03-30T05:04:35.339Z,27.9
2019-03-30T05:07:41.229Z,27.7
2019-03-30T05:10:47.259Z,27.5
2019-03-30T05:13:53.147Z,27.5
2019-03-30T05:16:59.184Z,27.2
2019-03-30T05:20:05.250Z,27
2019-03-30T05:23:11.311Z,26.8
2019-03-30T05:26:17.247Z,26.7
2019-03-30T05:29:23.228Z,26.7
2019-03-30T05:32:29.187Z,26.4
2019-03-30T05:35:35.148Z,26.4
2019-03-30T05:38:41.031Z,26.3
2019-03-30T05:41:47.005Z,26.4
2019-03-30T05:44:53.025Z,26.5
2019-03-30T05:48:02.750Z,27
2019-03-30T05:51:08.732Z,27.1
2019-03-30T05:54:14.608Z,27.1
2019-03-30T05:57:20.550Z,27.2
2019-03-30T06:00:26.510Z,27.2
2019-03-30T06:03:32.473Z,27.2
2019-03-30T06:06:38.533Z,27.2
2019-03-30T06:09:44.423Z,27.3
2019-03-30T06:12:50.563Z,27.2
2019-03-30T06:15:56.527Z,27.2
2019-03-30T06:19:02.482Z,27.3
2019-03-30T06:22:08.441Z,27.2
2019-03-30T06:25:14.399Z,27.1
2019-03-30T06:28:20.359Z,27.2
2019-03-30T06:31:26.320Z,27.2
2019-03-30T06:34:32.223Z,27.2
2019-03-30T06:37:38.105Z,27.2
2019-03-30T06:40:44.091Z,27.2
2019-03-30T06:43:49.966Z,27.3
2019-03-30T06:46:55.909Z,27.1
2019-03-30T06:50:01.840Z,27.1
2019-03-30T06:53:07.788Z,27
2019-03-30T06:56:13.660Z,27.1
2019-03-30T06:59:19.646Z,27
2019-03-30T07:02:25.522Z,27.2
2019-03-30T07:05:31.566Z,27.1
2019-03-30T07:08:37.457Z,27
2019-03-30T07:11:43.389Z,27.1
2019-03-30T07:14:49.263Z,27.2
2019-03-30T07:17:55.304Z,26.9
2019-03-30T07:21:01.177Z,26.8
2019-03-30T07:24:07.233Z,26.9
2019-03-30T07:27:13.189Z,27
2019-03-30T07:30:19.126Z,26.8
2019-03-30T07:33:25.205Z,26.8
2019-03-30T07:36:31.084Z,26.7
2019-03-30T07:39:37.026Z,26.6
2019-03-30T07:42:43.013Z,26.9
2019-03-30T07:45:48.922Z,26.8
2019-03-30T07:48:54.847Z,26.8
2019-03-30T07:52:00.868Z,26.7
2019-03-30T07:55:06.950Z,26.9
2019-03-30T07:58:12.991Z,26.8
2019-03-30T08:01:18.863Z,26.7
2019-03-30T08:04:24.806Z,26.6
2019-03-30T08:07:34.225Z,26.7
2019-03-30T08:10:40.414Z,26.7
2019-03-30T08:13:46.400Z,26.7
2019-03-30T08:16:52.332Z,26.8
2019-03-30T08:19:58.291Z,26.7
2019-03-30T08:23:04.387Z,26.7
2019-03-30T08:26:10.417Z,26.8
2019-03-30T08:29:16.304Z,26.8
2019-03-30T08:32:22.238Z,26.8
2019-03-30T08:35:28.108Z,26.7
2019-03-30T08:38:34.156Z,26.5
2019-03-30T08:41:43.288Z,26.6
2019-03-30T08:44:49.164Z,26.7
2019-03-30T08:47:55.108Z,26.8
2019-03-30T08:51:01.147Z,26.9
2019-03-30T08:54:07.231Z,26.8
2019-03-30T08:57:13.192Z,26.6
2019-03-30T09:00:19.155Z,26.6
2019-03-30T09:03:25.111Z,26.5
2019-03-30T09:06:31.076Z,26.6
2019-03-30T09:09:37.045Z,26.5
2019-03-30T09:12:43.197Z,26.4
2019-03-30T09:15:51.721Z,26.4
2019-03-30T09:18:57.610Z,26.4
2019-03-30T09:22:03.489Z,26.4
2019-03-30T09:25:09.496Z,26.2
2019-03-30T09:28:15.372Z,26.3
2019-03-30T09:31:21.317Z,26.2
2019-03-30T09:34:27.189Z,26.2
2019-03-30T09:37:33.238Z,26.1
2019-03-30T09:40:39.110Z,26.1
2019-03-30T09:43:45.053Z,26.1
2019-03-30T09:46:51.111Z,26.1
2019-03-30T09:49:57.072Z,26.1
2019-03-30T09:53:06.822Z,26.2
2019-03-30T09:56:15.034Z,26.4
2019-03-30T09:59:20.908Z,26.4
2019-03-30T10:02:26.954Z,26.3
2019-03-30T10:05:32.840Z,26.2
2019-03-30T10:08:41.740Z,26.2
2019-03-30T10:11:47.702Z,26
2019-03-30T10:14:53.665Z,25.9
2019-03-30T10:17:59.551Z,25.9
2019-03-30T10:21:05.588Z,25.9
2019-03-30T10:24:11.462Z,26
2019-03-30T10:27:17.400Z,25.8
2019-03-30T10:30:23.441Z,25.7
2019-03-30T10:33:29.291Z,25.8
2019-03-30T10:36:35.281Z,25.7
2019-03-30T10:39:41.157Z,25.5
2019-03-30T10:42:47.217Z,25.6
2019-03-30T10:45:53.276Z,25.6
2019-03-30T10:48:59.222Z,25.8
2019-03-30T10:52:05.188Z,25.6
2019-03-30T10:55:11.056Z,25.6
2019-03-30T10:58:17.005Z,25.3
2019-03-30T11:01:22.874Z,25.3
2019-03-30T11:04:28.820Z,25.2
2019-03-30T11:07:34.881Z,25.2
2019-03-30T11:10:40.816Z,25.2
2019-03-30T11:13:46.906Z,25.2
2019-03-30T11:16:52.866Z,25.2
2019-03-30T11:19:58.828Z,25.2
2019-03-30T11:23:07.275Z,25.1
2019-03-30T11:26:13.308Z,25.2
2019-03-30T11:29:19.370Z,25
2019-03-30T11:32:25.270Z,25.1
2019-03-30T11:35:31.390Z,25.1
2019-03-30T11:38:37.262Z,25.2
2019-03-30T11:41:43.325Z,25
2019-03-30T11:44:49.183Z,24.9
2019-03-30T11:47:55.331Z,24.9
2019-03-30T11:51:01.295Z,24.8
2019-03-30T11:54:08.377Z,24.9
2019-03-30T11:57:14.337Z,25
2019-03-30T12:00:20.300Z,24.9
2019-03-30T12:03:26.359Z,24.8
2019-03-30T12:06:32.422Z,24.8
2019-03-30T12:09:38.388Z,24.8
2019-03-30T12:12:44.351Z,24.8
2019-03-30T12:15:50.327Z,24.7
2019-03-30T12:18:56.263Z,24.6
2019-03-30T12:22:02.632Z,24.7
2019-03-30T12:25:08.507Z,24.7
2019-03-30T12:28:14.553Z,24.7
2019-03-30T12:31:20.522Z,24.7
2019-03-30T12:34:26.576Z,24.6
2019-03-30T12:37:32.536Z,24.7
2019-03-30T12:40:38.515Z,24.6
2019-03-30T12:43:44.375Z,24.5
2019-03-30T12:46:53.093Z,24.5
2019-03-30T12:49:59.158Z,24.5
2019-03-30T12:53:05.180Z,24.6
2019-03-30T12:56:11.170Z,24.6
2019-03-30T12:59:19.480Z,24.6
2019-03-30T13:02:25.439Z,24.6
2019-03-30T13:05:31.351Z,24.5
2019-03-30T13:08:37.468Z,24.4
2019-03-30T13:11:43.431Z,24.4
2019-03-30T13:14:49.301Z,24.5
2019-03-30T13:17:55.343Z,24.4
2019-03-30T13:21:01.216Z,24.5
2019-03-30T13:24:07.160Z,24.4
2019-03-30T13:27:13.743Z,24.3
2019-03-30T13:30:19.694Z,24.4
2019-03-30T13:33:25.654Z,24.4
2019-03-30T13:36:31.529Z,24.4
2019-03-30T13:39:37.471Z,24.4
2019-03-30T13:42:43.347Z,24.4
2019-03-30T13:45:49.292Z,24.4
2019-03-30T13:48:55.171Z,24.3
2019-03-30T13:52:01.210Z,24.4
2019-03-30T13:55:07.087Z,24.4
2019-03-30T13:58:13.232Z,24.4
2019-03-30T14:01:19.106Z,24.4
2019-03-30T14:04:25.057Z,24.3
2019-03-30T14:07:31.015Z,24.4
2019-03-30T14:10:39.637Z,24.3
2019-03-30T14:13:45.593Z,24.4
2019-03-30T14:16:51.552Z,24.3
2019-03-30T14:19:57.616Z,24.3
2019-03-30T14:23:03.525Z,24.3
2019-03-30T14:26:09.542Z,24.3
2019-03-30T14:29:15.500Z,24.1
2019-03-30T14:32:21.374Z,24.3
2019-03-30T14:35:27.313Z,24.3
2019-03-30T14:38:33.277Z,24.2
2019-03-30T14:41:41.910Z,24.2
2019-03-30T14:44:47.959Z,24.2
2019-03-30T14:47:53.935Z,24.1
2019-03-30T14:51:06.131Z,24.1
2019-03-30T14:54:12.090Z,24.1
2019-03-30T14:57:18.044Z,24.2
2019-03-30T15:00:24.321Z,24.2
2019-03-30T15:03:31.502Z,24.2
2019-03-30T15:06:37.461Z,24.2
2019-03-30T15:09:43.421Z,24.2
2019-03-30T15:12:49.486Z,24.2
2019-03-30T15:15:56.483Z,24.1
2019-03-30T15:19:02.529Z,24.1
2019-03-30T15:22:08.409Z,24.1
2019-03-30T15:25:14.450Z,24.2
2019-03-30T15:28:20.513Z,24.2
2019-03-30T15:31:26.387Z,24.2
2019-03-30T15:34:32.328Z,24.1
2019-03-30T15:37:38.291Z,24.1
2019-03-30T15:40:44.253Z,24.2
2019-03-30T15:43:52.672Z,24.2
2019-03-30T15:46:58.630Z,24.2
2019-03-30T15:50:04.602Z,24.2
2019-03-30T15:53:10.552Z,24.2
2019-03-30T15:56:16.511Z,24.2
2019-03-30T15:59:22.469Z,24.2
2019-03-30T16:02:28.340Z,24.2
2019-03-30T16:05:34.392Z,24.2
2019-03-30T16:08:40.346Z,24.3
2019-03-30T16:11:46.225Z,24.3
2019-03-30T16:14:52.168Z,24.3
2019-03-30T16:17:58.085Z,24.4
2019-03-30T16:21:04.087Z,24.5
2019-03-30T16:24:10.048Z,24.5
2019-03-30T16:27:29.573Z,24.5
2019-03-30T16:30:35.585Z,24.5
2019-03-30T16:33:41.460Z,24.6
2019-03-30T16:36:51.093Z,24.6
2019-03-30T16:39:59.920Z,24.6
2019-03-30T16:43:08.947Z,24.6
2019-03-30T16:46:14.908Z,24.7
2019-03-30T16:49:20.840Z,24.7
2019-03-30T16:52:26.827Z,24.7
2019-03-30T16:55:32.707Z,24.7
2019-03-30T16:58:38.661Z,24.7
2019-03-30T17:01:44.620Z,24.8
2019-03-30T17:04:50.571Z,24.8
2019-03-30T17:07:56.525Z,24.8
2019-03-30T17:11:02.458Z,24.9
2019-03-30T17:14:08.445Z,24.9
2019-03-30T17:17:14.318Z,25
2019-03-30T17:20:20.273Z,25
2019-03-30T17:23:26.228Z,25
2019-03-30T17:26:32.096Z,25.1
2019-03-30T17:29:38.043Z,25.1
2019-03-30T17:32:44.005Z,25.1
2019-03-30T17:35:50.074Z,25.2
2019-03-30T17:38:56.038Z,25.2
2019-03-30T17:42:01.983Z,25.4
2019-03-30T17:45:08.044Z,25.4
2019-03-30T17:48:13.944Z,25.4
2019-03-30T17:51:19.876Z,25.5
2019-03-30T17:54:26.027Z,25.5
2019-03-30T17:57:31.990Z,25.5
2019-03-30T18:00:40.511Z,25.6
2019-03-30T18:03:46.383Z,25.6
2019-03-30T18:06:52.325Z,25.7
2019-03-30T18:09:58.388Z,25.7
2019-03-30T18:13:08.274Z,25.8
2019-03-30T18:16:14.198Z,25.9
2019-03-30T18:19:23.546Z,25.9
2019-03-30T18:22:29.508Z,25.9
2019-03-30T18:25:35.389Z,25.9
2019-03-30T18:28:41.318Z,26
2019-03-30T18:31:47.382Z,26
2019-03-30T18:34:53.451Z,26
2019-03-30T18:37:59.610Z,26.1
2019-03-30T18:41:05.490Z,26.1
2019-03-30T18:44:11.433Z,26.1
2019-03-30T18:47:17.392Z,26.2
2019-03-30T18:50:23.293Z,26.3
2019-03-30T18:53:29.305Z,26.3
2019-03-30T18:56:35.178Z,26.4
2019-03-30T18:59:41.121Z,26.4
2019-03-30T19:02:47.185Z,26.4
2019-03-30T19:05:53.145Z,26.5
2019-03-30T19:08:59.082Z,26.6
2019-03-30T19:12:05.067Z,26.6
2019-03-30T19:15:11.028Z,26.6
2019-03-30T19:18:16.987Z,26.7
2019-03-30T19:21:22.949Z,26.7
2019-03-30T19:24:28.876Z,26.7
2019-03-30T19:27:34.872Z,26.8
2019-03-30T19:30:42.953Z,26.8
2019-03-30T19:33:48.939Z,26.9
2019-03-30T19:36:54.897Z,26.9
2019-03-30T19:40:00.961Z,26.9
2019-03-30T19:43:06.837Z,26.9
2019-03-30T19:46:13.082Z,26.9
2019-03-30T19:49:19.046Z,27
2019-03-30T19:52:40.514Z,27
2019-03-30T19:55:46.527Z,27.1
2019-03-30T19:58:52.409Z,27.1
2019-03-30T20:02:13.911Z,27.1
2019-03-30T20:05:19.973Z,27.1
2019-03-30T20:08:25.932Z,27.2
2019-03-30T20:11:31.995Z,27.3
2019-03-30T20:14:38.061Z,27.3
2019-03-30T20:17:43.935Z,27.4
2019-03-30T20:20:49.878Z,27.4
2019-03-30T20:23:55.752Z,27.4
2019-03-30T20:27:01.698Z,27.4
2019-03-30T20:30:10.143Z,27.4
2019-03-30T20:33:16.196Z,27.5
2019-03-30T20:36:22.259Z,27.5
2019-03-30T20:39:30.862Z,27.5
2019-03-30T20:42:36.920Z,27.6
2019-03-30T20:45:42.850Z,27.6
2019-03-30T20:48:48.839Z,27.6
2019-03-30T20:51:54.723Z,27.6
2019-03-30T20:55:00.761Z,27.7
2019-03-30T20:58:06.824Z,27.6
2019-03-30T21:01:12.732Z,27.7
2019-03-30T21:04:18.743Z,27.7
2019-03-30T21:07:24.708Z,27.8
2019-03-30T21:10:30.579Z,27.7
2019-03-30T21:13:36.622Z,27.8
2019-03-30T21:16:42.582Z,27.8
2019-03-30T21:19:48.461Z,27.8
2019-03-30T21:22:54.406Z,27.9
2019-03-30T21:26:00.469Z,27.8
2019-03-30T21:29:06.343Z,27.9
2019-03-30T21:32:12.283Z,28
2019-03-30T21:35:18.351Z,28
2019-03-30T21:38:24.341Z,28
2019-03-30T21:41:30.368Z,28
2019-03-30T21:44:42.181Z,28.1
2019-03-30T21:47:48.128Z,28
2019-03-30T21:50:54.071Z,28
2019-03-30T21:54:00.049Z,28
2019-03-30T21:57:05.918Z,28.1
2019-03-30T22:00:12.440Z,28.1
2019-03-30T22:03:18.481Z,28.1
2019-03-30T22:06:24.396Z,28.2
2019-03-30T22:09:30.275Z,28.1
2019-03-30T22:12:36.337Z,28.1
2019-03-30T22:15:42.376Z,28.2
2019-03-30T22:18:48.252Z,28.2
2019-03-30T22:21:54.296Z,28.3
2019-03-30T22:25:00.360Z,28.3
2019-03-30T22:28:06.421Z,28.2
2019-03-30T22:31:12.381Z,28.3
2019-03-30T22:34:18.267Z,28.3
2019-03-30T22:37:24.200Z,28.3
2019-03-30T22:40:30.073Z,28.3
2019-03-30T22:43:36.237Z,28.4
2019-03-30T22:46:42.194Z,28.4
2019-03-30T22:49:48.056Z,28.3
2019-03-30T22:52:54.013Z,28.3
2019-03-30T22:55:59.873Z,28.4
2019-03-30T22:59:08.889Z,28.5
2019-03-30T23:02:14.898Z,28.5
2019-03-30T23:05:23.370Z,28.5
2019-03-30T23:08:29.344Z,28.5
2019-03-30T23:11:35.391Z,28.5
2019-03-30T23:14:41.557Z,28.5
2019-03-30T23:17:50.487Z,28.6
2019-03-30T23:20:56.372Z,28.6
2019-03-30T23:24:02.318Z,28.6
2019-03-30T23:27:08.364Z,28.6
2019-03-30T23:30:14.246Z,28.6
2019-03-30T23:33:20.183Z,28.6
2019-03-30T23:36:26.142Z,28.6
2019-03-30T23:39:32.108Z,28.7
2019-03-30T23:42:37.977Z,28.7
2019-03-30T23:45:44.330Z,28.7
2019-03-30T23:48:50.207Z,28.8
2019-03-30T23:51:56.148Z,28.8
2019-03-30T23:55:02.053Z,28.8
2019-03-30T23:58:07.976Z,28.8
